createdAt,value
2023-03-23T15:57:54.235Z,45.62
2023-03-23T16:00:24.709Z,45.89
2023-03-23T16:02:56.496Z,45.89
2023-03-23T16:05:25.022Z,45.86
2023-03-23T16:07:53.330Z,46.32
2023-03-23T16:10:22.856Z,46.76
2023-03-23T16:12:52.594Z,46.77
2023-03-23T16:15:21.251Z,46.85
2023-03-23T16:17:49.502Z,47.10
2023-03-23T16:20:19.986Z,47.28
2023-03-23T16:22:48.507Z,47.66
2023-03-23T16:25:18.819Z,47.75
2023-03-23T16:27:52.455Z,47.59
2023-03-23T16:30:23.560Z,48.07
2023-03-23T16:32:52.285Z,48.40
2023-03-23T16:35:21.423Z,48.58
2023-03-23T16:38:07.798Z,48.81
2023-03-23T16:40:37.763Z,49.24
2023-03-23T16:43:09.143Z,49.27
2023-03-23T16:45:41.615Z,49.80
2023-03-23T16:48:12.749Z,50.04
2023-03-23T16:50:45.166Z,50.11
2023-03-23T16:53:14.169Z,50.52
2023-03-23T16:55:44.143Z,50.64
2023-03-23T16:58:17.501Z,50.99
2023-03-23T17:00:49.160Z,51.09
2023-03-23T17:10:28.600Z,52.41
2023-03-23T17:12:58.201Z,52.58
2023-03-23T17:15:26.491Z,52.82
2023-03-23T17:17:55.610Z,53.04
2023-03-23T17:20:23.954Z,53.33
2023-03-23T17:22:51.954Z,53.56
2023-03-23T17:25:20.026Z,53.90
2023-03-23T17:27:48.500Z,54.19
2023-03-23T17:30:16.496Z,54.69
2023-03-23T17:32:49.954Z,54.88
2023-03-23T17:35:18.504Z,55.27
2023-03-23T17:37:48.933Z,55.71
2023-03-23T17:40:18.131Z,56.41
2023-03-23T17:42:46.234Z,56.55
2023-03-23T17:45:15.447Z,56.88
2023-03-23T17:47:44.182Z,56.92
2023-03-23T17:50:18.595Z,57.23
2023-03-23T17:52:47.316Z,57.80
2023-03-23T17:55:16.336Z,57.82
2023-03-23T17:57:45.940Z,58.48
2023-03-23T18:00:15.647Z,58.64
2023-03-23T18:02:46.141Z,59.31
2023-03-23T18:05:15.996Z,59.80
2023-03-23T18:07:44.656Z,60.26
2023-03-23T18:10:14.508Z,60.71
2023-03-23T18:12:43.834Z,60.72
2023-03-23T18:15:12.364Z,61.26
2023-03-23T18:17:40.778Z,61.95
2023-03-23T18:20:09.179Z,61.96
2023-03-23T18:22:37.211Z,62.80
2023-03-23T18:25:06.002Z,63.04
2023-03-23T18:27:34.891Z,63.19
2023-03-23T18:30:03.838Z,63.77
2023-03-23T18:32:36.129Z,64.17
2023-03-23T18:35:05.408Z,65.09
2023-03-23T18:37:34.396Z,65.79
2023-03-23T18:40:02.801Z,66.04
2023-03-23T18:42:31.825Z,66.66
2023-03-23T18:45:00.262Z,66.76
2023-03-23T18:47:28.517Z,66.85
2023-03-23T18:49:57.263Z,67.28
2023-03-23T18:52:26.622Z,67.48
2023-03-23T18:54:55.243Z,68.36
2023-03-23T18:57:23.749Z,69.03
2023-03-23T18:59:52.230Z,69.64
2023-03-23T19:02:20.608Z,70.07
2023-03-23T19:04:49.570Z,70.72
2023-03-23T19:07:18.252Z,71.00
2023-03-23T19:09:47.470Z,71.52
2023-03-23T19:12:15.999Z,72.19
2023-03-23T19:14:44.993Z,72.49
2023-03-23T19:17:13.290Z,72.79
2023-03-23T19:19:43.736Z,73.18
2023-03-23T19:22:13.100Z,73.13
2023-03-23T19:24:41.348Z,73.30
2023-03-23T19:27:11.041Z,73.67
2023-03-23T19:29:39.298Z,73.69
2023-03-23T19:32:10.045Z,73.93
2023-03-23T19:34:39.572Z,74.50
2023-03-23T19:37:11.022Z,74.49
2023-03-23T19:39:41.823Z,74.62
2023-03-23T19:42:11.878Z,74.88
2023-03-23T19:44:41.422Z,75.08
2023-03-23T19:47:09.961Z,75.38
2023-03-23T19:49:45.687Z,75.53
2023-03-23T19:52:16.192Z,76.06
2023-03-23T19:54:46.111Z,76.30
2023-03-23T19:57:14.674Z,77.01
2023-03-23T19:59:44.288Z,77.50
2023-03-23T20:02:12.957Z,77.78
2023-03-23T20:04:43.520Z,77.96
2023-03-23T20:07:12.622Z,78.34
2023-03-23T20:09:41.088Z,78.26
2023-03-23T20:12:12.900Z,77.78
2023-03-23T20:14:45.055Z,77.90
2023-03-23T20:17:14.846Z,77.94
2023-03-23T20:19:46.096Z,78.52
2023-03-23T20:29:57.299Z,77.97
2023-03-23T20:32:26.561Z,78.05
2023-03-23T20:34:57.094Z,77.89
2023-03-23T20:37:26.004Z,77.97
2023-03-23T20:39:57.882Z,78.88
2023-03-23T20:42:26.160Z,78.67
2023-03-23T20:44:54.422Z,78.98
2023-03-23T20:47:23.105Z,79.48
2023-03-23T20:49:53.939Z,79.79
2023-03-23T20:52:23.603Z,80.18
2023-03-23T20:54:53.798Z,80.23
2023-03-23T20:57:22.391Z,80.27
2023-03-23T20:59:53.404Z,80.50
2023-03-23T21:02:22.039Z,81.07
2023-03-23T21:04:53.055Z,81.36
2023-03-23T21:07:23.336Z,81.50
2023-03-23T21:09:52.308Z,81.98
2023-03-23T21:12:23.261Z,81.89
2023-03-23T21:14:51.665Z,82.24
2023-03-23T21:17:19.954Z,82.30
2023-03-23T21:19:48.840Z,82.12
2023-03-23T21:22:18.976Z,82.49
2023-03-23T21:24:50.457Z,82.21
2023-03-23T21:27:21.919Z,82.08
2023-03-23T21:29:51.164Z,81.90
2023-03-23T21:32:19.322Z,81.42
2023-03-23T21:34:51.525Z,81.95
2023-03-23T21:37:19.963Z,82.16
2023-03-23T21:39:51.223Z,82.62
2023-03-23T21:42:19.603Z,83.02
2023-03-23T21:44:48.732Z,83.40
2023-03-23T21:47:18.097Z,82.89
2023-03-23T21:49:47.476Z,83.66
2023-03-23T21:52:15.517Z,83.47
2023-03-23T21:54:43.675Z,83.52
2023-03-23T21:57:12.468Z,83.40
2023-03-23T21:59:42.923Z,83.55
2023-03-23T22:02:12.666Z,83.32
2023-03-23T22:04:41.442Z,83.43
2023-03-23T22:07:15.085Z,83.58
2023-03-23T22:09:45.421Z,83.56
2023-03-23T22:12:14.414Z,83.41
2023-03-23T22:14:42.590Z,83.32
2023-03-23T22:17:11.212Z,83.72
2023-03-23T22:19:39.459Z,83.62
2023-03-23T22:22:11.737Z,83.71
2023-03-23T22:24:40.540Z,83.68
2023-03-23T22:27:08.713Z,83.51
2023-03-23T22:29:37.825Z,83.25
2023-03-23T22:32:05.995Z,83.21
2023-03-23T22:34:34.074Z,83.29
2023-03-23T22:37:05.670Z,83.17
2023-03-23T22:39:34.675Z,83.02
2023-03-23T22:42:09.749Z,83.27
2023-03-23T22:44:39.862Z,83.41
2023-03-23T22:47:08.070Z,83.22
2023-03-23T22:49:39.111Z,83.79
2023-03-23T22:52:07.596Z,83.97
2023-03-23T22:54:39.473Z,84.26
2023-03-23T22:57:08.115Z,84.85
2023-03-23T22:59:36.524Z,85.93
2023-03-23T23:02:04.630Z,86.39
2023-03-23T23:04:33.632Z,86.28
2023-03-23T23:07:12.624Z,87.14
2023-03-23T23:09:55.356Z,86.39
2023-03-23T23:12:24.356Z,86.88
2023-03-23T23:14:58.628Z,87.52
2023-03-23T23:17:27.093Z,87.99
2023-03-23T23:19:55.274Z,88.64
2023-03-23T23:22:23.846Z,89.48
2023-03-23T23:24:52.027Z,89.48
2023-03-23T23:27:20.617Z,89.52
2023-03-23T23:29:49.299Z,88.82
2023-03-23T23:32:17.717Z,88.01
2023-03-23T23:34:46.881Z,87.51
2023-03-23T23:37:15.506Z,87.69
2023-03-23T23:39:43.652Z,87.78
2023-03-23T23:42:13.145Z,88.39
2023-03-23T23:44:43.331Z,88.16
2023-03-23T23:47:11.591Z,87.28
2023-03-23T23:49:40.347Z,87.54
2023-03-23T23:52:08.891Z,88.25
2023-03-23T23:54:42.603Z,88.42
2023-03-23T23:57:10.842Z,87.73
2023-03-23T23:59:39.087Z,86.98
